Time;durP1;ratioP1;P1;durP2;ratioP2;P2;SDS_P1;SDS_P2;PMS_P1;PMS_P2;Temp;Humidity;BMP_temperature;BMP_pressure;BME280_temperature;BME280_humidity;BME280_pressure;Samples;Min_cycle;Max_cycle;Signal;HPM_P1;HPM_P2
2022/10/18 00:00:54;;;;;;;3.13;1.63;;;;;;;15.32;100.00;100845.50;5049243;28;20055;-84
2022/10/18 00:03:19;;;;;;;5.82;3.10;;;;;;;15.35;100.00;100847.72;5047621;28;20063;-88
2022/10/18 00:05:46;;;;;;;5.90;2.17;;;;;;;15.34;100.00;100846.88;5049749;28;20028;-88
2022/10/18 00:08:11;;;;;;;5.15;2.33;;;;;;;15.37;100.00;100840.03;5050312;28;20086;-86
2022/10/18 00:10:37;;;;;;;5.75;1.52;;;;;;;15.24;100.00;100844.94;5048608;28;20476;-84
2022/10/18 00:13:05;;;;;;;8.93;1.73;;;;;;;15.31;100.00;100846.59;5048905;28;20036;-84
2022/10/18 00:15:30;;;;;;;2.30;1.17;;;;;;;15.42;100.00;100837.28;5049544;28;20296;-84
2022/10/18 00:17:56;;;;;;;4.27;1.73;;;;;;;15.48;100.00;100843.59;5049228;28;20056;-84
2022/10/18 00:20:24;;;;;;;6.10;1.95;;;;;;;15.54;100.00;100842.53;5049458;28;20688;-83
2022/10/18 00:22:49;;;;;;;7.82;2.33;;;;;;;15.56;99.58;100847.78;5048860;28;20107;-83
2022/10/18 00:25:15;;;;;;;3.87;1.97;;;;;;;15.57;99.63;100841.16;5049824;28;20119;-88
2022/10/18 00:27:40;;;;;;;4.35;1.58;;;;;;;15.67;99.32;100837.59;5049747;28;20263;-87
2022/10/18 00:30:06;;;;;;;7.00;1.55;;;;;;;15.63;99.39;100846.41;5049714;28;20075;-87
2022/10/18 00:32:36;;;;;;;5.50;1.83;;;;;;;15.61;99.20;100847.75;5049164;28;20151;-87
2022/10/18 00:35:02;;;;;;;3.22;1.45;;;;;;;15.60;100.00;100844.19;5049358;28;20036;-82
2022/10/18 00:37:28;;;;;;;7.82;2.03;;;;;;;15.62;99.80;100846.69;5049207;28;20124;-82
2022/10/18 00:39:53;;;;;;;4.80;1.75;;;;;;;15.69;99.05;100844.47;5049991;28;20096;-90
2022/10/18 00:42:21;;;;;;;7.10;2.10;;;;;;;15.81;98.63;100844.22;5052133;28;20040;-89
2022/10/18 00:44:49;;;;;;;4.18;1.75;;;;;;;15.85;98.09;100833.47;5053344;28;20293;-87
2022/10/18 00:47:18;;;;;;;6.03;1.55;;;;;;;15.71;98.40;100830.44;5053390;28;20033;-87
2022/10/18 00:49:49;;;;;;;4.20;1.38;;;;;;;15.78;98.55;100828.28;5053675;28;20064;-90
2022/10/18 00:52:25;;;;;;;6.72;1.65;;;;;;;15.87;98.00;100828.53;5052827;28;20108;-91
2022/10/18 00:54:53;;;;;;;4.75;1.77;;;;;;;15.83;97.84;100828.25;5052854;28;20032;-84
2022/10/18 00:57:18;;;;;;;4.35;1.40;;;;;;;15.71;98.21;100823.03;5052326;28;20041;-84
2022/10/18 00:59:45;;;;;;;3.70;1.23;;;;;;;15.79;97.70;100818.91;5052957;28;20044;-87
2022/10/18 01:02:13;;;;;;;3.28;1.40;;;;;;;15.80;98.06;100830.75;5051756;28;20272;-87
2022/10/18 01:04:39;;;;;;;3.75;1.15;;;;;;;15.80;98.04;100819.75;5051991;28;20459;-87
2022/10/18 01:07:23;;;;;;;4.70;0.93;;;;;;;15.75;98.32;100815.06;5052794;28;20064;-87
2022/10/18 01:09:58;;;;;;;;;;;;;;;15.81;98.18;100813.13;5053741;28;20120;-90
2022/10/18 01:12:45;;;;;;;3.22;1.70;;;;;;;15.83;97.98;100817.28;5051964;28;20367;-89
2022/10/18 01:15:19;;;;;;;4.30;1.25;;;;;;;15.81;98.10;100821.38;5052684;28;20033;-85
2022/10/18 01:18:12;;;;;;;3.65;1.48;;;;;;;15.76;98.36;100820.28;5051131;28;20434;-85
2022/10/18 01:21:05;;;;;;;2.47;1.02;;;;;;;15.82;98.29;100814.81;5053347;28;20033;-91
2022/10/18 01:23:48;;;;;;;2.55;1.13;;;;;;;15.81;98.31;100815.88;5052468;28;20033;-87
2022/10/18 01:26:36;;;;;;;3.37;1.60;;;;;;;15.66;98.84;100813.97;5052703;28;20033;-87
2022/10/18 01:29:42;;;;;;;4.63;1.10;;;;;;;15.74;98.25;100811.47;5053027;28;20032;-91
2022/10/18 01:32:13;;;;;;;6.85;1.55;;;;;;;15.79;98.33;100813.41;5052201;28;20028;-91
2022/10/18 01:34:42;;;;;;;2.90;0.90;;;;;;;15.73;98.61;100811.75;5052256;28;20029;-88
2022/10/18 01:37:12;;;;;;;2.83;1.17;;;;;;;15.66;98.90;100822.22;5052443;28;20036;-88
2022/10/18 01:39:42;;;;;;;2.20;0.90;;;;;;;15.54;98.35;100808.75;5052564;28;20037;-84
2022/10/18 01:42:11;;;;;;;2.47;0.77;;;;;;;15.48;99.96;100800.47;5051972;28;20131;-84
2022/10/18 01:44:38;;;;;;;3.67;1.23;;;;;;;15.48;99.65;100802.38;5052357;28;20024;-89
2022/10/18 01:47:06;;;;;;;10.43;1.40;;;;;;;15.55;99.42;100797.47;5052136;28;20040;-89
2022/10/18 01:49:32;;;;;;;5.72;1.10;;;;;;;15.69;98.99;100797.75;5051064;28;20041;-89
2022/10/18 01:51:57;;;;;;;2.65;1.13;;;;;;;15.66;98.41;100800.22;5051592;28;20036;-89
2022/10/18 01:54:29;;;;;;;3.00;1.50;;;;;;;15.79;98.43;100807.91;5051761;28;20115;-90
2022/10/18 01:57:30;;;;;;;5.50;1.23;;;;;;;15.68;98.27;100804.31;5051926;28;20025;-89
2022/10/18 02:00:15;;;;;;;4.13;1.67;;;;;;;15.69;98.16;100803.25;5038271;28;20392;-84
2022/10/18 02:02:49;;;;;;;2.97;1.67;;;;;;;15.75;98.49;100801.31;5051119;28;20033;-84
2022/10/18 02:05:28;;;;;;;3.42;1.67;;;;;;;15.81;98.00;100804.88;5051721;28;20040;-90
2022/10/18 02:08:16;;;;;;;3.38;1.00;;;;;;;15.85;97.99;100795.00;5052380;28;20045;-89
2022/10/18 02:10:49;;;;;;;3.95;1.50;;;;;;;15.74;97.38;100797.75;5051753;28;20052;-89
2022/10/18 02:13:17;;;;;;;4.72;1.40;;;;;;;15.66;97.87;100797.47;5051697;28;20124;-85
2022/10/18 02:15:46;;;;;;;4.78;1.80;;;;;;;15.58;98.52;100796.09;5050997;28;20345;-84
2022/10/18 02:18:18;;;;;;;6.18;1.73;;;;;;;15.63;98.14;100796.09;5050652;28;20040;-88
2022/10/18 02:20:44;;;;;;;4.13;1.08;;;;;;;15.54;98.33;100806.00;5069996;28;20036;-88
2022/10/18 02:23:11;;;;;;;2.50;1.17;;;;;;;15.60;98.29;100807.66;5060682;28;20516;-86
2022/10/18 02:25:37;;;;;;;5.55;2.42;;;;;;;15.59;98.56;100800.47;5052102;28;20461;-87
2022/10/18 02:28:03;;;;;;;4.10;1.52;;;;;;;15.59;98.23;100798.56;5050277;28;20029;-87
2022/10/18 02:30:45;;;;;;;3.53;1.35;;;;;;;15.59;98.19;100797.75;5041801;28;20033;-84
2022/10/18 02:33:19;;;;;;;3.45;1.38;;;;;;;15.55;99.03;100796.63;5040756;28;20033;-85
2022/10/18 02:35:51;;;;;;;5.78;2.25;;;;;;;15.47;99.29;100796.09;5049678;28;20052;-85
2022/10/18 02:38:19;;;;;;;6.72;3.13;;;;;;;15.52;99.57;100800.75;5050695;28;20025;-85
2022/10/18 02:40:44;;;;;;;3.08;1.60;;;;;;;15.63;99.28;100796.94;5051411;28;20032;-88
2022/10/18 02:43:09;;;;;;;4.37;1.67;;;;;;;15.61;98.91;100796.38;5050560;28;20033;-89
2022/10/18 02:45:34;;;;;;;4.33;1.93;;;;;;;15.71;98.55;100789.22;5050096;28;20779;-86
2022/10/18 02:48:00;;;;;;;4.72;2.08;;;;;;;15.70;98.58;100788.38;5049710;28;20277;-86
2022/10/18 02:50:25;;;;;;;7.80;2.33;;;;;;;15.71;98.09;100787.31;5051175;28;20051;-86
2022/10/18 02:52:51;;;;;;;4.45;1.60;;;;;;;15.69;98.39;100785.91;5049170;28;20130;-86
2022/10/18 02:55:16;;;;;;;5.78;2.08;;;;;;;15.56;98.62;100792.81;5050484;28;20039;-86
2022/10/18 02:57:42;;;;;;;4.43;1.73;;;;;;;15.54;99.67;100792.25;5050806;28;20049;-87
2022/10/18 03:00:08;;;;;;;10.77;2.55;;;;;;;15.51;99.38;100797.19;5051011;28;20040;-86
2022/10/18 03:02:33;;;;;;;7.05;2.97;;;;;;;15.59;99.04;100795.00;5049888;28;20131;-86
2022/10/18 03:04:59;;;;;;;3.35;1.70;;;;;;;15.59;98.22;100792.25;5050314;28;20239;-86
2022/10/18 03:07:24;;;;;;;5.05;2.42;;;;;;;15.51;99.02;100786.19;5049525;28;20079;-86
2022/10/18 03:09:49;;;;;;;8.57;3.20;;;;;;;15.42;100.00;100793.31;5050039;28;20158;-86
2022/10/18 03:12:15;;;;;;;6.90;2.97;;;;;;;15.46;99.87;100788.94;5049788;28;20044;-83
2022/10/18 03:14:41;;;;;;;5.78;3.22;;;;;;;15.43;100.00;100794.16;5049736;28;20029;-83
2022/10/18 03:17:06;;;;;;;13.23;3.88;;;;;;;15.39;100.00;100797.44;5050433;28;20119;-91
2022/10/18 03:19:31;;;;;;;5.75;2.20;;;;;;;15.32;100.00;100796.03;5051107;28;20030;-91
2022/10/18 03:21:57;;;;;;;6.75;2.90;;;;;;;15.14;100.00;100799.03;5050432;28;20029;-86
2022/10/18 03:24:22;;;;;;;9.37;3.30;;;;;;;15.23;100.00;100796.59;5050164;28;20037;-85
2022/10/18 03:26:47;;;;;;;7.20;2.53;;;;;;;15.35;100.00;100804.59;5050362;28;20343;-83
2022/10/18 03:29:12;;;;;;;5.88;2.80;;;;;;;15.51;99.93;100802.69;5049562;28;20768;-83
2022/10/18 03:31:38;;;;;;;6.40;3.10;;;;;;;15.50;99.68;100801.03;5050238;28;20107;-88
2022/10/18 03:34:03;;;;;;;6.23;2.87;;;;;;;15.49;100.00;100799.38;5049906;28;20286;-88
2022/10/18 03:36:28;;;;;;;7.22;3.60;;;;;;;15.50;100.00;100801.03;5050598;28;20273;-84
2022/10/18 03:38:54;;;;;;;6.50;3.50;;;;;;;15.52;100.00;100793.34;5049504;28;20053;-84
2022/10/18 03:41:19;;;;;;;6.77;2.83;;;;;;;15.62;99.90;100799.97;5049694;28;20033;-84
2022/10/18 03:43:45;;;;;;;9.48;3.53;;;;;;;15.44;100.00;100807.59;5049562;28;20352;-84
2022/10/18 03:46:11;;;;;;;5.13;3.10;;;;;;;15.43;100.00;100805.13;5049553;28;20025;-84
2022/10/18 03:48:36;;;;;;;6.95;3.25;;;;;;;15.52;100.00;100804.31;5049242;28;20049;-83
2022/10/18 03:51:01;;;;;;;5.53;3.05;;;;;;;15.51;100.00;100807.34;5049721;28;20395;-89
2022/10/18 03:53:26;;;;;;;6.28;2.17;;;;;;;15.57;100.00;100806.25;5049945;28;20500;-88
2022/10/18 03:55:53;;;;;;;5.03;2.55;;;;;;;15.56;100.00;100809.28;5050526;28;20036;-91
2022/10/18 03:58:18;;;;;;;5.72;2.55;;;;;;;15.52;100.00;100803.50;5050531;28;20362;-91
2022/10/18 04:00:43;;;;;;;6.63;3.00;;;;;;;15.57;100.00;100799.94;5050652;28;20108;-87
2022/10/18 04:03:09;;;;;;;4.80;1.90;;;;;;;15.54;100.00;100800.50;5049404;28;20033;-86
2022/10/18 04:05:35;;;;;;;6.25;3.10;;;;;;;15.49;100.00;100799.38;5050253;28;20258;-84
2022/10/18 04:08:01;;;;;;;6.68;3.83;;;;;;;15.56;100.00;100796.34;5049119;28;20061;-83
2022/10/18 04:10:26;;;;;;;9.27;2.60;;;;;;;15.46;100.00;100788.13;5049333;28;20060;-84
2022/10/18 04:12:52;;;;;;;8.73;3.45;;;;;;;15.41;100.00;100797.19;5049178;28;20051;-83
2022/10/18 04:15:17;;;;;;;8.75;2.97;;;;;;;15.45;100.00;100791.97;5048059;28;20064;-83
2022/10/18 04:17:42;;;;;;;9.02;3.40;;;;;;;15.49;100.00;100795.81;5054363;28;20029;-89
2022/10/18 04:20:08;;;;;;;7.60;3.08;;;;;;;15.51;100.00;100802.69;5054405;28;20043;-89
2022/10/18 04:22:33;;;;;;;6.88;3.83;;;;;;;15.48;100.00;100792.22;5053598;28;20089;-92
2022/10/18 04:24:58;;;;;;;7.78;4.85;;;;;;;15.56;100.00;100803.78;5053944;28;20033;-91
2022/10/18 04:27:25;;;;;;;8.05;4.32;;;;;;;15.54;100.00;100797.75;5054077;28;20473;-88
2022/10/18 04:29:51;;;;;;;7.68;3.63;;;;;;;15.61;100.00;100795.53;5053660;28;20009;-87
2022/10/18 04:32:16;;;;;;;8.88;3.85;;;;;;;15.50;100.00;100805.69;5052327;28;20078;-86
2022/10/18 04:34:41;;;;;;;9.13;4.23;;;;;;;15.40;100.00;100806.50;5053060;28;20476;-86
2022/10/18 04:37:06;;;;;;;9.87;3.60;;;;;;;15.32;100.00;100798.78;5052594;28;20323;-83
2022/10/18 04:39:32;;;;;;;10.82;5.72;;;;;;;15.41;100.00;100802.66;5052425;28;20746;-83
2022/10/18 04:41:57;;;;;;;9.37;4.13;;;;;;;15.51;100.00;100801.84;5052171;28;20064;-83
2022/10/18 04:44:22;;;;;;;7.82;4.03;;;;;;;15.48;100.00;100803.22;5052573;28;20853;-83
2022/10/18 04:46:48;;;;;;;12.73;4.57;;;;;;;15.58;100.00;100807.09;5052526;28;20036;-87
2022/10/18 04:49:13;;;;;;;8.60;4.20;;;;;;;15.57;100.00;100816.41;5052999;28;20495;-87
2022/10/18 04:51:38;;;;;;;10.50;5.15;;;;;;;15.50;100.00;100811.19;5053265;28;20036;-82
2022/10/18 04:54:04;;;;;;;9.65;4.80;;;;;;;15.56;100.00;100804.59;5051324;28;20025;-82
2022/10/18 04:56:29;;;;;;;11.40;4.38;;;;;;;15.52;100.00;100812.56;5052668;28;20496;-91
2022/10/18 04:58:54;;;;;;;11.23;4.90;;;;;;;15.48;100.00;100808.72;5053228;28;20057;-91
2022/10/18 05:01:19;;;;;;;12.15;5.45;;;;;;;15.55;100.00;100813.97;5052109;28;20128;-91
2022/10/18 05:03:45;;;;;;;9.23;4.45;;;;;;;15.58;100.00;100807.91;5052345;28;20036;-91
2022/10/18 05:06:10;;;;;;;10.20;4.45;;;;;;;15.51;100.00;100808.19;5052817;28;20120;-84
2022/10/18 05:08:36;;;;;;;9.13;4.97;;;;;;;15.57;100.00;100802.69;5052351;28;20037;-83
2022/10/18 05:11:02;;;;;;;9.18;5.00;;;;;;;15.61;100.00;100803.78;5050663;28;20764;-82
2022/10/18 05:13:28;;;;;;;13.07;6.30;;;;;;;15.55;100.00;100802.13;5051546;28;20674;-83
2022/10/18 05:15:54;;;;;;;10.32;6.60;;;;;;;15.56;100.00;100809.28;5052329;28;20042;-86
2022/10/18 05:18:19;;;;;;;10.75;5.55;;;;;;;15.59;100.00;100808.72;5052296;28;20036;-86
2022/10/18 05:20:45;;;;;;;16.70;6.97;;;;;;;15.67;100.00;100802.69;5051967;28;20116;-83
2022/10/18 05:23:10;;;;;;;12.02;5.78;;;;;;;15.73;100.00;100809.84;5049981;28;20530;-83
2022/10/18 05:25:41;;;;;;;12.50;6.50;;;;;;;15.60;100.00;100805.69;5052081;28;20127;-84
2022/10/18 05:28:06;;;;;;;19.83;7.75;;;;;;;15.56;100.00;100804.59;5051982;28;20060;-84
2022/10/18 05:30:31;;;;;;;14.70;7.07;;;;;;;15.51;100.00;100808.19;5051814;28;20044;-86
2022/10/18 05:32:57;;;;;;;11.52;6.65;;;;;;;15.60;100.00;100804.91;5052025;28;20449;-85
2022/10/18 05:35:22;;;;;;;18.83;8.07;;;;;;;15.60;100.00;100811.19;5052196;28;20032;-85
2022/10/18 05:37:47;;;;;;;14.43;7.27;;;;;;;15.52;100.00;100804.31;5050568;28;20676;-83
2022/10/18 05:40:13;;;;;;;12.95;6.13;;;;;;;15.49;100.00;100796.63;5051354;28;20258;-83
2022/10/18 05:42:38;;;;;;;23.17;11.07;;;;;;;15.54;100.00;100800.50;5052228;28;20040;-89
2022/10/18 05:45:04;;;;;;;14.65;8.38;;;;;;;15.61;100.00;100812.03;5052183;28;20433;-89
2022/10/18 05:47:29;;;;;;;16.25;9.13;;;;;;;15.62;100.00;100813.69;5052206;28;20575;-87
2022/10/18 05:49:54;;;;;;;16.10;8.53;;;;;;;15.58;100.00;100815.34;5052424;28;20472;-87
2022/10/18 05:52:19;;;;;;;26.80;13.63;;;;;;;15.47;100.00;100800.75;5051340;28;20270;-84
2022/10/18 05:54:45;;;;;;;18.88;10.52;;;;;;;15.44;100.00;100812.31;5048896;28;20737;-84
2022/10/18 05:57:10;;;;;;;19.83;12.48;;;;;;;15.56;100.00;100821.09;5047679;28;20036;-90
2022/10/18 05:59:35;;;;;;;21.23;12.40;;;;;;;15.60;100.00;100819.44;5051136;28;20028;-90
2022/10/18 06:02:01;;;;;;;21.60;9.10;;;;;;;15.49;100.00;100818.63;5051317;28;20325;-86
2022/10/18 06:04:26;;;;;;;21.55;8.35;;;;;;;15.48;100.00;100825.19;5051123;28;20262;-87
2022/10/18 06:06:52;;;;;;;13.37;7.33;;;;;;;15.54;100.00;100827.97;5050751;28;20037;-86
2022/10/18 06:09:18;;;;;;;15.93;7.93;;;;;;;15.61;100.00;100842.25;5050693;28;20265;-86
2022/10/18 06:11:43;;;;;;;12.65;6.50;;;;;;;15.49;100.00;100835.13;5049969;28;20368;-90
2022/10/18 06:14:08;;;;;;;16.42;7.55;;;;;;;15.42;100.00;100842.78;5050649;28;20029;-89
2022/10/18 06:16:33;;;;;;;17.27;8.10;;;;;;;15.44;100.00;100834.28;5051127;28;20536;-84
2022/10/18 06:18:59;;;;;;;14.40;7.73;;;;;;;15.53;100.00;100846.38;5050247;28;20265;-84
2022/10/18 06:21:25;;;;;;;18.77;8.75;;;;;;;15.50;100.00;100833.16;5050439;28;20315;-90
2022/10/18 06:23:52;;;;;;;21.00;8.20;;;;;;;15.45;100.00;100836.75;5050236;28;20109;-90
2022/10/18 06:26:17;;;;;;;15.38;8.23;;;;;;;15.44;100.00;100843.31;5050879;28;20481;-86
2022/10/18 06:28:42;;;;;;;20.52;9.15;;;;;;;15.58;100.00;100848.31;5050654;28;20455;-86
2022/10/18 06:31:09;;;;;;;15.07;7.50;;;;;;;15.60;100.00;100848.88;5050320;28;20412;-84
2022/10/18 06:33:35;;;;;;;19.15;11.00;;;;;;;15.57;100.00;100852.16;5049132;28;20025;-84
2022/10/18 06:36:10;;;;;;;20.67;9.50;;;;;;;15.29;100.00;100844.13;5050497;28;20040;-89
2022/10/18 06:38:35;;;;;;;18.90;8.50;;;;;;;15.37;100.00;100848.28;5049820;28;20550;-88
2022/10/18 06:41:01;;;;;;;15.90;8.50;;;;;;;15.41;100.00;100846.63;5050388;28;20123;-89
2022/10/18 06:43:27;;;;;;;18.50;9.85;;;;;;;15.35;100.00;100847.72;5049826;28;20167;-89
2022/10/18 06:45:53;;;;;;;24.67;8.93;;;;;;;15.28;100.00;100843.28;5049336;28;20033;-89
2022/10/18 06:48:19;;;;;;;18.60;9.90;;;;;;;15.41;100.00;100843.88;5049013;28;20112;-88
2022/10/18 06:50:58;;;;;;;15.27;7.60;;;;;;;15.55;100.00;100851.59;5050770;28;20036;-89
2022/10/18 06:53:25;;;;;;;18.38;8.55;;;;;;;15.48;100.00;100857.34;5049822;28;20796;-89
2022/10/18 06:55:50;;;;;;;17.95;9.13;;;;;;;15.54;100.00;100860.94;5050301;28;20033;-89
2022/10/18 06:58:15;;;;;;;18.20;9.83;;;;;;;15.64;100.00;100860.97;5043607;28;165634;-90
2022/10/18 07:00:41;;;;;;;21.80;11.23;;;;;;;15.49;100.00;100868.09;5050205;28;20281;-84
2022/10/18 07:03:06;;;;;;;16.85;8.98;;;;;;;15.60;100.00;100879.09;5049364;28;20040;-84
2022/10/18 07:05:31;;;;;;;17.70;9.93;;;;;;;15.50;100.00;100880.72;5049240;28;20032;-89
2022/10/18 07:07:57;;;;;;;17.52;9.60;;;;;;;15.42;100.00;100881.25;5050516;28;20336;-89
2022/10/18 07:10:25;;;;;;;16.65;8.18;;;;;;;15.40;100.00;100878.78;5050792;28;20033;-89
2022/10/18 07:12:50;;;;;;;15.50;9.63;;;;;;;15.44;100.00;100879.03;5050656;28;20029;-89
2022/10/18 07:15:16;;;;;;;21.30;10.50;;;;;;;15.51;100.00;100881.53;5044114;28;20487;-89
2022/10/18 07:17:44;;;;;;;17.95;9.57;;;;;;;15.69;100.00;100891.22;5038351;28;20484;-89
2022/10/18 07:20:10;;;;;;;24.15;12.13;;;;;;;15.72;100.00;100882.41;5043017;28;20128;-89
2022/10/18 07:22:37;;;;;;;18.20;9.02;;;;;;;15.63;100.00;100875.81;5041843;28;20159;-85
2022/10/18 07:25:03;;;;;;;29.85;12.50;;;;;;;15.64;100.00;100885.72;5038428;28;20021;-86
2022/10/18 07:27:29;;;;;;;20.48;11.23;;;;;;;15.68;100.00;100883.25;5041334;28;20035;-88
2022/10/18 07:29:55;;;;;;;17.08;9.30;;;;;;;15.52;100.00;100889.50;5033270;28;20021;-89
2022/10/18 07:32:20;;;;;;;14.87;8.53;;;;;;;15.36;100.00;100893.31;5036526;28;20416;-89
2022/10/18 07:34:45;;;;;;;18.52;8.65;;;;;;;15.35;100.00;100891.66;5050036;28;20278;-90
2022/10/18 07:37:10;;;;;;;17.10;8.33;;;;;;;15.50;100.00;100907.38;5049705;28;20049;-89
2022/10/18 07:39:36;;;;;;;22.58;11.63;;;;;;;15.57;100.00;100904.38;5050361;28;20324;-88
2022/10/18 07:42:01;;;;;;;18.37;9.70;;;;;;;15.55;100.00;100912.06;5050297;28;20122;-86
2022/10/18 07:44:26;;;;;;;21.83;11.75;;;;;;;15.47;100.00;100903.25;5050094;28;20683;-86
2022/10/18 07:46:52;;;;;;;20.80;9.82;;;;;;;15.47;100.00;100911.50;5066675;28;20036;-89
2022/10/18 07:49:17;;;;;;;16.65;10.40;;;;;;;15.47;100.00;100917.00;5064007;28;20072;-89
2022/10/18 07:51:42;;;;;;;16.60;9.07;;;;;;;15.54;100.00;100919.47;5052441;28;20104;-84
2022/10/18 07:54:08;;;;;;;21.88;8.68;;;;;;;15.42;100.00;100919.72;5053117;28;20380;-83
2022/10/18 07:56:33;;;;;;;19.05;8.90;;;;;;;15.41;100.00;100926.31;5053425;28;20025;-83
2022/10/18 07:58:58;;;;;;;22.63;10.65;;;;;;;15.32;100.00;100931.50;5053708;28;20044;-84
2022/10/18 08:01:24;;;;;;;22.33;9.10;;;;;;;15.43;100.00;100924.13;5053167;28;20086;-89
2022/10/18 08:03:50;;;;;;;20.20;12.65;;;;;;;15.57;100.00;100924.44;5053384;28;20266;-89
2022/10/18 08:06:17;;;;;;;26.52;13.10;;;;;;;15.71;100.00;100938.50;5053713;28;20112;-86
2022/10/18 08:08:44;;;;;;;22.08;11.60;;;;;;;15.82;100.00;100938.53;5053855;28;20553;-86
2022/10/18 08:11:13;;;;;;;21.38;12.48;;;;;;;15.80;100.00;100943.47;5059111;28;20059;-84
2022/10/18 08:13:39;;;;;;;24.90;14.00;;;;;;;15.66;100.00;100934.91;5059598;28;20120;-84
2022/10/18 08:16:16;;;;;;;32.88;13.43;;;;;;;15.75;100.00;100947.84;5053866;28;20112;-84
2022/10/18 08:18:42;;;;;;;21.88;13.10;;;;;;;15.88;100.00;100942.94;5053337;28;20116;-83
2022/10/18 08:21:09;;;;;;;21.95;11.45;;;;;;;15.81;100.00;100954.19;5053319;28;20116;-84
2022/10/18 08:23:35;;;;;;;25.08;12.55;;;;;;;15.74;100.00;100951.69;5052111;28;20041;-84
2022/10/18 08:26:03;;;;;;;25.42;15.65;;;;;;;15.70;100.00;100958.81;5053327;28;20082;-86
2022/10/18 08:28:28;;;;;;;24.02;13.48;;;;;;;15.74;100.00;100959.13;5053777;28;20040;-86
2022/10/18 08:30:54;;;;;;;24.83;15.15;;;;;;;15.87;100.00;100958.59;5053787;28;20092;-83
2022/10/18 08:33:19;;;;;;;24.10;15.83;;;;;;;15.87;100.00;100963.25;5052631;28;20083;-84
2022/10/18 08:35:54;;;;;;;24.93;12.33;;;;;;;15.76;100.00;100962.44;5053179;28;20262;-83
2022/10/18 08:38:19;;;;;;;25.67;14.27;;;;;;;15.72;100.00;100970.38;5053099;28;20333;-83
2022/10/18 08:40:45;;;;;;;33.90;19.17;;;;;;;16.02;100.00;100975.44;5052848;28;20539;-84
2022/10/18 08:43:17;;;;;;;26.70;12.60;;;;;;;15.99;100.00;100983.09;5052883;28;20270;-83
2022/10/18 08:45:43;;;;;;;29.23;16.77;;;;;;;16.05;100.00;100980.41;5053061;28;20063;-87
2022/10/18 08:48:37;;;;;;;28.13;15.20;;;;;;;16.03;100.00;100982.59;5053431;28;20472;-87
2022/10/18 08:51:05;;;;;;;28.73;15.77;;;;;;;15.93;100.00;100984.19;5031551;28;20492;-86
2022/10/18 08:53:39;;;;;;;28.65;15.23;;;;;;;15.98;100.00;100986.97;5045988;28;20119;-86
2022/10/18 08:56:13;;;;;;;30.30;16.85;;;;;;;16.11;100.00;100987.53;5053313;28;20028;-84
2022/10/18 08:58:41;;;;;;;27.20;15.00;;;;;;;16.09;100.00;100985.06;5052316;28;20053;-84
2022/10/18 09:01:54;;;;;;;30.17;16.52;;;;;;;16.01;100.00;100984.75;5052603;28;20033;-84
2022/10/18 09:04:47;;;;;;;30.10;13.82;;;;;;;15.97;100.00;100985.28;4990033;28;20044;-84
2022/10/18 09:07:27;;;;;;;30.65;14.52;;;;;;;15.81;100.00;100984.44;5051892;28;20052;-88
2022/10/18 09:10:06;;;;;;;29.25;13.70;;;;;;;15.75;100.00;100985.50;5053215;28;20110;-88
2022/10/18 09:12:50;;;;;;;30.33;16.00;;;;;;;15.98;100.00;100997.97;5052878;28;20125;-88
2022/10/18 09:15:35;;;;;;;37.78;20.05;;;;;;;16.06;100.00;100995.78;5052553;28;20024;-88
2022/10/18 09:18:21;;;;;;;33.65;19.92;;;;;;;15.95;100.00;100986.66;5053063;28;20029;-88
2022/10/18 09:20:56;;;;;;;28.85;16.45;;;;;;;15.79;100.00;100986.63;5053446;28;20048;-89
2022/10/18 09:23:30;;;;;;;41.10;19.08;;;;;;;15.95;100.00;100995.75;5052455;28;20114;-89
2022/10/18 09:26:06;;;;;;;43.28;23.20;;;;;;;16.12;100.00;100993.88;5052648;28;20575;-84
2022/10/18 09:28:47;;;;;;;43.15;20.90;;;;;;;16.12;100.00;100996.63;5052543;28;20048;-84
2022/10/18 09:31:18;;;;;;;37.00;21.75;;;;;;;16.15;100.00;100996.09;5052545;28;20033;-89
2022/10/18 09:34:00;;;;;;;40.55;21.95;;;;;;;16.24;100.00;100999.13;5050870;28;20128;-89
2022/10/18 09:36:34;;;;;;;47.42;23.13;;;;;;;16.14;100.00;101000.75;5053229;28;20021;-87
2022/10/18 09:39:02;;;;;;;;;;;;;;;16.14;100.00;101011.78;5053405;28;20032;-87
2022/10/18 09:41:39;;;;;;;42.58;24.10;;;;;;;16.17;100.00;101015.91;5052699;28;20342;-88
2022/10/18 09:44:14;;;;;;;42.20;25.05;;;;;;;16.27;100.00;101012.34;5052370;28;20356;-88
2022/10/18 09:46:47;;;;;;;45.65;25.95;;;;;;;16.19;100.00;101011.75;5052541;28;20449;-84
2022/10/18 09:49:18;;;;;;;40.10;21.15;;;;;;;15.89;100.00;101021.56;5051722;28;20033;-84
2022/10/18 09:51:46;;;;;;;54.72;27.25;;;;;;;15.91;100.00;101008.38;5051221;28;20025;-89
2022/10/18 09:54:31;;;;;;;55.33;25.83;;;;;;;16.09;100.00;101014.50;5051735;28;20029;-89
2022/10/18 09:57:20;;;;;;;45.05;21.10;;;;;;;15.95;100.00;101014.16;5051846;28;20468;-83
2022/10/18 09:59:49;;;;;;;45.15;24.17;;;;;;;15.85;100.00;101026.78;5051412;28;20056;-83
2022/10/18 10:02:16;;;;;;;39.53;23.20;;;;;;;15.94;100.00;101018.00;5051975;28;20025;-87
2022/10/18 10:04:42;;;;;;;49.08;25.75;;;;;;;15.73;100.00;101018.78;5051950;28;20036;-88
2022/10/18 10:07:12;;;;;;;56.28;24.30;;;;;;;15.89;100.00;101018.81;5050751;28;20029;-85
2022/10/18 10:09:47;;;;;;;50.70;25.02;;;;;;;15.95;100.00;101026.00;5050676;28;20025;-86
2022/10/18 10:12:32;;;;;;;45.75;23.98;;;;;;;16.37;100.00;101023.38;5052196;28;20040;-86
2022/10/18 10:15:22;;;;;;;44.38;24.27;;;;;;;16.55;100.00;101021.16;5050827;28;20040;-86
2022/10/18 10:17:59;;;;;;;47.90;26.30;;;;;;;16.83;99.76;101013.44;5051534;28;20025;-85
2022/10/18 10:20:42;;;;;;;34.08;19.00;;;;;;;16.72;98.37;101012.63;5051649;28;20040;-85
2022/10/18 10:23:18;;;;;;;38.20;21.08;;;;;;;16.29;100.00;101010.16;5051610;28;20064;-85
2022/10/18 10:25:48;;;;;;;41.65;25.15;;;;;;;16.51;100.00;101014.56;5051766;28;20148;-89
2022/10/18 10:28:17;;;;;;;41.75;26.52;;;;;;;16.52;100.00;101013.44;5051858;28;20051;-89
2022/10/18 10:30:42;;;;;;;48.55;24.15;;;;;;;16.59;99.86;101018.69;5051827;28;20029;-87
2022/10/18 10:33:35;;;;;;;39.58;21.88;;;;;;;16.54;99.50;101023.09;5051259;28;20040;-87
2022/10/18 10:36:03;;;;;;;43.83;21.65;;;;;;;16.31;100.00;101024.47;5051414;28;20111;-87
2022/10/18 10:38:30;;;;;;;51.75;23.42;;;;;;;16.51;100.00;101031.06;5051293;28;20063;-87
2022/10/18 10:40:56;;;;;;;51.88;25.35;;;;;;;16.86;99.47;101036.88;5051952;28;20072;-87
2022/10/18 10:43:26;;;;;;;38.20;23.90;;;;;;;16.57;99.19;101035.50;5050712;28;20491;-85
2022/10/18 10:46:06;;;;;;;40.03;20.05;;;;;;;16.68;99.28;101030.78;5051086;28;20036;-87
2022/10/18 10:48:39;;;;;;;38.35;19.73;;;;;;;17.04;97.92;101027.22;5051006;28;20064;-89
2022/10/18 10:51:08;;;;;;;38.03;21.08;;;;;;;17.33;96.82;101023.84;5061016;28;20059;-88
2022/10/18 10:53:58;;;;;;;38.88;21.95;;;;;;;17.30;96.30;101029.09;5055818;28;20526;-92
2022/10/18 10:56:26;;;;;;;49.85;23.77;;;;;;;17.00;97.37;101031.63;5051286;28;20040;-85
2022/10/18 10:58:54;;;;;;;41.20;22.00;;;;;;;16.93;97.66;101031.88;5050398;28;20084;-84
2022/10/18 11:01:21;;;;;;;50.00;23.63;;;;;;;17.00;98.02;101026.09;5050726;28;20032;-89
2022/10/18 11:03:49;;;;;;;92.32;27.80;;;;;;;17.20;97.52;101021.69;5050434;28;20032;-90
2022/10/18 11:06:30;;;;;;;115.30;27.73;;;;;;;17.42;94.54;101028.78;5050567;28;20032;-83
2022/10/18 11:08:58;;;;;;;43.10;24.02;;;;;;;17.39;93.91;101031.00;5051298;28;20112;-89
2022/10/18 11:11:30;;;;;;;42.90;22.38;;;;;;;17.38;92.58;101026.59;5052269;28;20056;-96
2022/10/18 11:14:22;;;;;;;44.88;24.35;;;;;;;17.42;93.24;101026.03;5056477;28;20111;-96
2022/10/18 11:16:57;;;;;;;45.40;27.92;;;;;;;17.43;92.68;101016.66;5056131;28;20044;-88
2022/10/18 11:19:43;;;;;;;41.10;23.08;;;;;;;17.74;91.33;101020.13;5050607;28;20036;-88
2022/10/18 11:22:15;;;;;;;42.40;22.73;;;;;;;17.90;90.50;101030.25;5050832;28;20029;-95